sensor_id;sensor_type;location;lat;lon;timestamp;P1;durP1;ratioP1;P2;durP2;ratioP2
38581;SDS011;24349;53.720;10.014;2022-09-11T00:00:48;115.03;;;43.10;;
38581;SDS011;24349;53.720;10.014;2022-09-11T00:03:15;87.22;;;39.78;;
38581;SDS011;24349;53.720;10.014;2022-09-11T00:05:42;152.38;;;42.88;;
38581;SDS011;24349;53.720;10.014;2022-09-11T00:08:13;93.30;;;36.00;;
38581;SDS011;24349;53.720;10.014;2022-09-11T00:13:07;100.35;;;33.80;;
38581;SDS011;24349;53.720;10.014;2022-09-11T00:15:42;53.70;;;29.23;;
38581;SDS011;24349;53.720;10.014;2022-09-11T00:18:09;88.43;;;31.55;;
38581;SDS011;24349;53.720;10.014;2022-09-11T00:20:37;46.88;;;26.88;;
38581;SDS011;24349;53.720;10.014;2022-09-11T00:23:03;40.15;;;30.48;;
38581;SDS011;24349;53.720;10.014;2022-09-11T00:25:36;48.22;;;27.58;;
38581;SDS011;24349;53.720;10.014;2022-09-11T00:28:05;82.82;;;30.20;;
38581;SDS011;24349;53.720;10.014;2022-09-11T00:30:31;61.58;;;28.50;;
38581;SDS011;24349;53.720;10.014;2022-09-11T00:32:58;47.30;;;26.35;;
38581;SDS011;24349;53.720;10.014;2022-09-11T00:35:24;37.10;;;28.25;;
38581;SDS011;24349;53.720;10.014;2022-09-11T00:37:50;62.20;;;29.88;;
38581;SDS011;24349;53.720;10.014;2022-09-11T00:40:16;77.90;;;36.10;;
38581;SDS011;24349;53.720;10.014;2022-09-11T00:42:43;36.00;;;24.98;;
38581;SDS011;24349;53.720;10.014;2022-09-11T00:45:25;43.53;;;30.25;;
38581;SDS011;24349;53.720;10.014;2022-09-11T00:47:52;47.22;;;28.02;;
38581;SDS011;24349;53.720;10.014;2022-09-11T00:50:23;32.67;;;23.00;;
38581;SDS011;24349;53.720;10.014;2022-09-11T00:53:01;42.78;;;25.50;;
38581;SDS011;24349;53.720;10.014;2022-09-11T00:55:31;207.57;;;43.65;;
38581;SDS011;24349;53.720;10.014;2022-09-11T00:58:04;62.90;;;29.00;;
38581;SDS011;24349;53.720;10.014;2022-09-11T01:00:41;51.28;;;28.33;;
38581;SDS011;24349;53.720;10.014;2022-09-11T01:03:08;119.03;;;42.20;;
38581;SDS011;24349;53.720;10.014;2022-09-11T01:05:34;46.13;;;29.15;;
38581;SDS011;24349;53.720;10.014;2022-09-11T01:08:03;124.90;;;41.25;;
38581;SDS011;24349;53.720;10.014;2022-09-11T01:10:54;120.32;;;42.22;;
38581;SDS011;24349;53.720;10.014;2022-09-11T01:13:50;99.00;;;33.95;;
38581;SDS011;24349;53.720;10.014;2022-09-11T01:16:41;52.13;;;31.50;;
38581;SDS011;24349;53.720;10.014;2022-09-11T01:29:44;57.83;;;23.58;;
38581;SDS011;24349;53.720;10.014;2022-09-11T01:32:20;139.73;;;27.67;;
38581;SDS011;24349;53.720;10.014;2022-09-11T01:34:51;91.78;;;24.40;;
38581;SDS011;24349;53.720;10.014;2022-09-11T01:37:30;83.68;;;23.38;;
38581;SDS011;24349;53.720;10.014;2022-09-11T01:40:23;78.60;;;22.73;;
38581;SDS011;24349;53.720;10.014;2022-09-11T01:43:07;45.13;;;23.20;;
38581;SDS011;24349;53.720;10.014;2022-09-11T01:45:38;92.05;;;23.25;;
38581;SDS011;24349;53.720;10.014;2022-09-11T01:48:07;96.70;;;26.83;;
38581;SDS011;24349;53.720;10.014;2022-09-11T01:50:36;35.90;;;20.00;;
38581;SDS011;24349;53.720;10.014;2022-09-11T01:53:05;94.53;;;23.13;;
38581;SDS011;24349;53.720;10.014;2022-09-11T01:55:43;101.10;;;27.25;;
38581;SDS011;24349;53.720;10.014;2022-09-11T01:58:35;82.00;;;24.17;;
38581;SDS011;24349;53.720;10.014;2022-09-11T02:01:05;76.82;;;21.10;;
38581;SDS011;24349;53.720;10.014;2022-09-11T02:03:39;102.07;;;26.20;;
38581;SDS011;24349;53.720;10.014;2022-09-11T02:06:17;160.52;;;28.02;;
38581;SDS011;24349;53.720;10.014;2022-09-11T02:08:49;102.07;;;25.63;;
38581;SDS011;24349;53.720;10.014;2022-09-11T02:11:18;139.23;;;32.50;;
38581;SDS011;24349;53.720;10.014;2022-09-11T02:19:19;82.38;;;28.50;;
38581;SDS011;24349;53.720;10.014;2022-09-11T02:21:52;203.07;;;30.90;;
38581;SDS011;24349;53.720;10.014;2022-09-11T02:24:18;108.28;;;27.30;;
38581;SDS011;24349;53.720;10.014;2022-09-11T02:26:47;196.23;;;30.00;;
38581;SDS011;24349;53.720;10.014;2022-09-11T02:29:16;121.82;;;26.65;;
38581;SDS011;24349;53.720;10.014;2022-09-11T02:31:42;120.75;;;28.25;;
38581;SDS011;24349;53.720;10.014;2022-09-11T02:34:09;69.03;;;22.70;;
38581;SDS011;24349;53.720;10.014;2022-09-11T02:42:17;93.68;;;22.10;;
38581;SDS011;24349;53.720;10.014;2022-09-11T02:44:59;40.00;;;21.27;;
38581;SDS011;24349;53.720;10.014;2022-09-11T02:47:45;35.92;;;19.60;;
38581;SDS011;24349;53.720;10.014;2022-09-11T02:50:42;48.30;;;20.90;;
38581;SDS011;24349;53.720;10.014;2022-09-11T02:55:57;35.45;;;18.13;;
38581;SDS011;24349;53.720;10.014;2022-09-11T03:00:51;29.45;;;17.08;;
38581;SDS011;24349;53.720;10.014;2022-09-11T03:03:17;38.95;;;20.77;;
38581;SDS011;24349;53.720;10.014;2022-09-11T03:05:45;34.88;;;19.77;;
38581;SDS011;24349;53.720;10.014;2022-09-11T03:08:11;41.35;;;23.00;;
38581;SDS011;24349;53.720;10.014;2022-09-11T03:10:40;46.42;;;21.35;;
38581;SDS011;24349;53.720;10.014;2022-09-11T03:13:10;35.90;;;21.52;;
38581;SDS011;24349;53.720;10.014;2022-09-11T03:15:36;39.53;;;23.77;;
38581;SDS011;24349;53.720;10.014;2022-09-11T03:18:02;35.65;;;18.35;;
38581;SDS011;24349;53.720;10.014;2022-09-11T03:20:29;35.30;;;20.75;;
38581;SDS011;24349;53.720;10.014;2022-09-11T03:22:55;39.92;;;21.30;;
38581;SDS011;24349;53.720;10.014;2022-09-11T03:25:21;29.75;;;20.05;;
38581;SDS011;24349;53.720;10.014;2022-09-11T03:27:52;40.35;;;22.15;;
38581;SDS011;24349;53.720;10.014;2022-09-11T03:30:18;42.22;;;18.90;;
38581;SDS011;24349;53.720;10.014;2022-09-11T03:32:45;76.82;;;26.45;;
38581;SDS011;24349;53.720;10.014;2022-09-11T03:35:10;41.13;;;21.20;;
38581;SDS011;24349;53.720;10.014;2022-09-11T03:37:36;36.20;;;20.10;;
38581;SDS011;24349;53.720;10.014;2022-09-11T03:40:02;43.65;;;19.58;;
38581;SDS011;24349;53.720;10.014;2022-09-11T03:42:28;64.07;;;21.63;;
38581;SDS011;24349;53.720;10.014;2022-09-11T03:44:54;48.25;;;17.35;;
38581;SDS011;24349;53.720;10.014;2022-09-11T03:47:19;42.33;;;21.08;;
38581;SDS011;24349;53.720;10.014;2022-09-11T03:49:46;101.82;;;25.05;;
38581;SDS011;24349;53.720;10.014;2022-09-11T03:52:12;30.50;;;17.17;;
38581;SDS011;24349;53.720;10.014;2022-09-11T03:54:39;59.67;;;21.92;;
38581;SDS011;24349;53.720;10.014;2022-09-11T03:57:06;37.63;;;20.95;;
38581;SDS011;24349;53.720;10.014;2022-09-11T03:59:32;47.72;;;21.02;;
38581;SDS011;24349;53.720;10.014;2022-09-11T04:01:57;47.08;;;21.27;;
38581;SDS011;24349;53.720;10.014;2022-09-11T04:04:23;41.55;;;18.23;;
38581;SDS011;24349;53.720;10.014;2022-09-11T04:06:48;28.08;;;17.77;;
38581;SDS011;24349;53.720;10.014;2022-09-11T04:09:14;31.08;;;18.92;;
38581;SDS011;24349;53.720;10.014;2022-09-11T04:11:40;22.23;;;15.00;;
38581;SDS011;24349;53.720;10.014;2022-09-11T04:14:06;30.25;;;15.80;;
38581;SDS011;24349;53.720;10.014;2022-09-11T04:16:32;39.40;;;18.65;;
38581;SDS011;24349;53.720;10.014;2022-09-11T04:19:00;30.10;;;17.52;;
38581;SDS011;24349;53.720;10.014;2022-09-11T04:21:27;49.05;;;20.00;;
38581;SDS011;24349;53.720;10.014;2022-09-11T04:23:54;30.02;;;15.57;;
38581;SDS011;24349;53.720;10.014;2022-09-11T04:26:21;34.00;;;18.25;;
38581;SDS011;24349;53.720;10.014;2022-09-11T04:28:48;21.73;;;13.02;;
38581;SDS011;24349;53.720;10.014;2022-09-11T04:31:15;34.42;;;19.30;;
38581;SDS011;24349;53.720;10.014;2022-09-11T04:33:42;48.10;;;20.42;;
38581;SDS011;24349;53.720;10.014;2022-09-11T04:36:09;24.20;;;15.20;;
38581;SDS011;24349;53.720;10.014;2022-09-11T04:38:37;33.47;;;17.25;;
38581;SDS011;24349;53.720;10.014;2022-09-11T04:41:05;32.50;;;18.17;;
38581;SDS011;24349;53.720;10.014;2022-09-11T04:43:32;24.17;;;14.80;;
38581;SDS011;24349;53.720;10.014;2022-09-11T04:45:59;24.38;;;15.18;;
38581;SDS011;24349;53.720;10.014;2022-09-11T04:48:26;29.88;;;15.77;;
38581;SDS011;24349;53.720;10.014;2022-09-11T04:51:02;28.02;;;18.13;;
38581;SDS011;24349;53.720;10.014;2022-09-11T04:53:29;35.20;;;19.58;;
38581;SDS011;24349;53.720;10.014;2022-09-11T04:56:03;25.48;;;15.88;;
38581;SDS011;24349;53.720;10.014;2022-09-11T04:58:30;21.67;;;15.20;;
38581;SDS011;24349;53.720;10.014;2022-09-11T05:00:56;19.42;;;13.45;;
38581;SDS011;24349;53.720;10.014;2022-09-11T05:03:22;23.42;;;14.68;;
38581;SDS011;24349;53.720;10.014;2022-09-11T05:05:48;16.98;;;11.65;;
38581;SDS011;24349;53.720;10.014;2022-09-11T05:08:14;29.80;;;17.65;;
38581;SDS011;24349;53.720;10.014;2022-09-11T05:10:43;25.15;;;16.38;;
38581;SDS011;24349;53.720;10.014;2022-09-11T05:13:08;24.48;;;16.60;;
38581;SDS011;24349;53.720;10.014;2022-09-11T05:15:35;25.17;;;15.80;;
38581;SDS011;24349;53.720;10.014;2022-09-11T05:18:00;34.10;;;18.95;;
38581;SDS011;24349;53.720;10.014;2022-09-11T05:20:27;23.33;;;15.88;;
38581;SDS011;24349;53.720;10.014;2022-09-11T05:22:55;24.80;;;15.65;;
38581;SDS011;24349;53.720;10.014;2022-09-11T05:25:21;21.85;;;14.82;;
38581;SDS011;24349;53.720;10.014;2022-09-11T05:27:47;20.42;;;13.82;;
38581;SDS011;24349;53.720;10.014;2022-09-11T05:30:13;17.48;;;13.25;;
38581;SDS011;24349;53.720;10.014;2022-09-11T05:32:38;26.27;;;18.65;;
38581;SDS011;24349;53.720;10.014;2022-09-11T05:35:04;29.17;;;20.95;;
38581;SDS011;24349;53.720;10.014;2022-09-11T05:37:31;21.52;;;15.88;;
38581;SDS011;24349;53.720;10.014;2022-09-11T05:39:56;20.77;;;15.25;;
38581;SDS011;24349;53.720;10.014;2022-09-11T05:42:23;24.30;;;18.50;;
38581;SDS011;24349;53.720;10.014;2022-09-11T05:44:48;38.63;;;25.30;;
38581;SDS011;24349;53.720;10.014;2022-09-11T05:47:14;25.38;;;18.75;;
38581;SDS011;24349;53.720;10.014;2022-09-11T05:49:40;29.40;;;20.95;;
38581;SDS011;24349;53.720;10.014;2022-09-11T05:52:05;29.70;;;22.90;;
38581;SDS011;24349;53.720;10.014;2022-09-11T05:54:31;28.80;;;21.15;;
38581;SDS011;24349;53.720;10.014;2022-09-11T05:56:57;22.48;;;18.55;;
38581;SDS011;24349;53.720;10.014;2022-09-11T05:59:22;16.00;;;13.55;;
38581;SDS011;24349;53.720;10.014;2022-09-11T06:01:48;29.85;;;21.85;;
38581;SDS011;24349;53.720;10.014;2022-09-11T06:04:14;30.15;;;21.00;;
38581;SDS011;24349;53.720;10.014;2022-09-11T06:06:41;33.15;;;22.48;;
38581;SDS011;24349;53.720;10.014;2022-09-11T06:09:07;23.38;;;18.65;;
38581;SDS011;24349;53.720;10.014;2022-09-11T06:11:33;33.60;;;22.60;;
38581;SDS011;24349;53.720;10.014;2022-09-11T06:13:59;29.42;;;20.90;;
38581;SDS011;24349;53.720;10.014;2022-09-11T06:16:25;18.65;;;15.82;;
38581;SDS011;24349;53.720;10.014;2022-09-11T06:18:51;38.85;;;22.00;;
38581;SDS011;24349;53.720;10.014;2022-09-11T06:21:19;30.98;;;22.27;;
38581;SDS011;24349;53.720;10.014;2022-09-11T06:23:47;33.08;;;21.80;;
38581;SDS011;24349;53.720;10.014;2022-09-11T06:26:15;16.70;;;12.88;;
38581;SDS011;24349;53.720;10.014;2022-09-11T06:28:42;21.05;;;17.17;;
38581;SDS011;24349;53.720;10.014;2022-09-11T06:31:09;20.77;;;16.55;;
38581;SDS011;24349;53.720;10.014;2022-09-11T06:33:37;15.93;;;14.13;;
38581;SDS011;24349;53.720;10.014;2022-09-11T06:36:08;17.58;;;15.00;;
38581;SDS011;24349;53.720;10.014;2022-09-11T06:38:36;27.40;;;19.52;;
38581;SDS011;24349;53.720;10.014;2022-09-11T06:41:07;21.90;;;17.45;;
38581;SDS011;24349;53.720;10.014;2022-09-11T06:43:36;16.02;;;13.88;;
38581;SDS011;24349;53.720;10.014;2022-09-11T06:46:08;19.83;;;15.27;;
38581;SDS011;24349;53.720;10.014;2022-09-11T06:48:39;15.57;;;12.90;;
38581;SDS011;24349;53.720;10.014;2022-09-11T06:51:06;23.00;;;17.05;;
38581;SDS011;24349;53.720;10.014;2022-09-11T06:53:35;18.27;;;16.23;;
38581;SDS011;24349;53.720;10.014;2022-09-11T06:56:02;16.38;;;14.32;;
38581;SDS011;24349;53.720;10.014;2022-09-11T06:58:31;17.48;;;15.57;;
38581;SDS011;24349;53.720;10.014;2022-09-11T07:01:07;18.92;;;15.85;;
38581;SDS011;24349;53.720;10.014;2022-09-11T07:03:35;18.73;;;16.73;;
38581;SDS011;24349;53.720;10.014;2022-09-11T07:06:01;19.83;;;14.77;;
38581;SDS011;24349;53.720;10.014;2022-09-11T07:08:27;17.55;;;15.65;;
38581;SDS011;24349;53.720;10.014;2022-09-11T07:10:53;17.58;;;14.98;;
38581;SDS011;24349;53.720;10.014;2022-09-11T07:13:19;16.80;;;14.75;;
38581;SDS011;24349;53.720;10.014;2022-09-11T07:15:48;18.48;;;16.50;;
38581;SDS011;24349;53.720;10.014;2022-09-11T07:18:23;17.08;;;15.07;;
38581;SDS011;24349;53.720;10.014;2022-09-11T07:20:49;16.85;;;14.50;;
38581;SDS011;24349;53.720;10.014;2022-09-11T07:23:14;16.58;;;13.30;;
38581;SDS011;24349;53.720;10.014;2022-09-11T07:25:40;15.98;;;13.40;;
38581;SDS011;24349;53.720;10.014;2022-09-11T07:28:06;18.40;;;15.02;;
38581;SDS011;24349;53.720;10.014;2022-09-11T07:30:31;14.63;;;11.45;;
38581;SDS011;24349;53.720;10.014;2022-09-11T07:32:59;15.02;;;11.38;;
38581;SDS011;24349;53.720;10.014;2022-09-11T07:35:24;13.98;;;12.57;;
38581;SDS011;24349;53.720;10.014;2022-09-11T07:37:50;14.73;;;12.60;;
38581;SDS011;24349;53.720;10.014;2022-09-11T07:40:16;12.27;;;10.98;;
38581;SDS011;24349;53.720;10.014;2022-09-11T07:42:42;10.95;;;9.85;;
38581;SDS011;24349;53.720;10.014;2022-09-11T07:45:08;12.27;;;10.45;;
38581;SDS011;24349;53.720;10.014;2022-09-11T07:47:34;11.18;;;10.07;;
38581;SDS011;24349;53.720;10.014;2022-09-11T07:50:00;10.68;;;8.43;;
38581;SDS011;24349;53.720;10.014;2022-09-11T07:52:26;9.38;;;8.23;;
38581;SDS011;24349;53.720;10.014;2022-09-11T07:54:51;11.68;;;10.48;;
38581;SDS011;24349;53.720;10.014;2022-09-11T07:57:17;8.98;;;6.50;;
38581;SDS011;24349;53.720;10.014;2022-09-11T07:59:43;8.70;;;7.57;;
38581;SDS011;24349;53.720;10.014;2022-09-11T08:02:10;10.13;;;9.00;;
38581;SDS011;24349;53.720;10.014;2022-09-11T08:04:36;8.32;;;7.28;;
38581;SDS011;24349;53.720;10.014;2022-09-11T08:07:01;8.73;;;7.82;;
38581;SDS011;24349;53.720;10.014;2022-09-11T08:09:27;12.90;;;11.25;;
38581;SDS011;24349;53.720;10.014;2022-09-11T08:11:53;11.57;;;10.38;;
38581;SDS011;24349;53.720;10.014;2022-09-11T08:14:22;12.80;;;11.07;;
38581;SDS011;24349;53.720;10.014;2022-09-11T08:16:51;12.35;;;9.57;;
38581;SDS011;24349;53.720;10.014;2022-09-11T08:19:18;9.18;;;7.97;;
38581;SDS011;24349;53.720;10.014;2022-09-11T08:21:46;11.05;;;9.70;;
38581;SDS011;24349;53.720;10.014;2022-09-11T08:24:13;11.65;;;10.15;;
38581;SDS011;24349;53.720;10.014;2022-09-11T08:26:40;9.73;;;7.28;;
38581;SDS011;24349;53.720;10.014;2022-09-11T08:29:07;10.40;;;8.27;;
38581;SDS011;24349;53.720;10.014;2022-09-11T08:31:32;6.82;;;5.65;;
38581;SDS011;24349;53.720;10.014;2022-09-11T08:33:59;8.55;;;5.78;;
38581;SDS011;24349;53.720;10.014;2022-09-11T08:36:25;6.18;;;5.15;;
38581;SDS011;24349;53.720;10.014;2022-09-11T08:38:51;5.75;;;4.13;;
38581;SDS011;24349;53.720;10.014;2022-09-11T08:41:21;5.70;;;4.82;;
38581;SDS011;24349;53.720;10.014;2022-09-11T08:43:52;7.03;;;6.00;;
38581;SDS011;24349;53.720;10.014;2022-09-11T08:46:32;7.43;;;5.20;;
38581;SDS011;24349;53.720;10.014;2022-09-11T08:49:03;6.95;;;5.40;;
38581;SDS011;24349;53.720;10.014;2022-09-11T08:51:30;5.80;;;5.10;;
38581;SDS011;24349;53.720;10.014;2022-09-11T08:53:56;6.22;;;4.38;;
38581;SDS011;24349;53.720;10.014;2022-09-11T08:56:25;6.57;;;5.00;;
38581;SDS011;24349;53.720;10.014;2022-09-11T09:04:37;6.93;;;4.55;;
38581;SDS011;24349;53.720;10.014;2022-09-11T09:10:13;6.05;;;4.60;;
38581;SDS011;24349;53.720;10.014;2022-09-11T09:16:01;5.63;;;3.03;;
38581;SDS011;24349;53.720;10.014;2022-09-11T09:18:52;6.65;;;3.80;;
38581;SDS011;24349;53.720;10.014;2022-09-11T09:23:55;4.65;;;3.47;;
38581;SDS011;24349;53.720;10.014;2022-09-11T09:26:34;4.60;;;3.10;;
38581;SDS011;24349;53.720;10.014;2022-09-11T09:29:04;5.55;;;3.38;;
38581;SDS011;24349;53.720;10.014;2022-09-11T09:31:38;5.10;;;3.90;;
38581;SDS011;24349;53.720;10.014;2022-09-11T09:34:10;4.82;;;3.03;;
38581;SDS011;24349;53.720;10.014;2022-09-11T09:39:42;6.72;;;3.70;;
38581;SDS011;24349;53.720;10.014;2022-09-11T09:47:50;7.30;;;3.70;;
38581;SDS011;24349;53.720;10.014;2022-09-11T09:50:18;4.47;;;2.90;;
38581;SDS011;24349;53.720;10.014;2022-09-11T09:52:47;5.20;;;3.00;;
38581;SDS011;24349;53.720;10.014;2022-09-11T09:55:15;8.05;;;3.42;;
38581;SDS011;24349;53.720;10.014;2022-09-11T09:57:44;4.45;;;2.85;;
38581;SDS011;24349;53.720;10.014;2022-09-11T10:08:05;4.70;;;3.35;;
38581;SDS011;24349;53.720;10.014;2022-09-11T10:10:52;4.43;;;2.63;;
38581;SDS011;24349;53.720;10.014;2022-09-11T10:13:23;6.18;;;2.78;;
38581;SDS011;24349;53.720;10.014;2022-09-11T10:15:55;6.93;;;2.92;;
38581;SDS011;24349;53.720;10.014;2022-09-11T10:23:44;4.10;;;2.30;;
38581;SDS011;24349;53.720;10.014;2022-09-11T10:26:27;5.10;;;2.60;;
38581;SDS011;24349;53.720;10.014;2022-09-11T10:29:11;5.00;;;2.67;;
38581;SDS011;24349;53.720;10.014;2022-09-11T10:31:39;5.93;;;2.90;;
38581;SDS011;24349;53.720;10.014;2022-09-11T10:34:15;6.55;;;3.55;;
38581;SDS011;24349;53.720;10.014;2022-09-11T10:36:53;4.47;;;2.00;;
38581;SDS011;24349;53.720;10.014;2022-09-11T10:39:21;4.88;;;2.72;;
38581;SDS011;24349;53.720;10.014;2022-09-11T10:41:49;4.10;;;2.17;;
38581;SDS011;24349;53.720;10.014;2022-09-11T10:44:18;4.78;;;2.60;;
38581;SDS011;24349;53.720;10.014;2022-09-11T10:46:47;4.10;;;2.17;;
38581;SDS011;24349;53.720;10.014;2022-09-11T10:49:47;4.95;;;2.90;;
38581;SDS011;24349;53.720;10.014;2022-09-11T10:57:36;6.43;;;2.80;;
38581;SDS011;24349;53.720;10.014;2022-09-11T11:00:21;3.72;;;2.20;;
38581;SDS011;24349;53.720;10.014;2022-09-11T11:02:55;4.00;;;2.60;;
38581;SDS011;24349;53.720;10.014;2022-09-11T11:16:36;4.22;;;2.00;;
38581;SDS011;24349;53.720;10.014;2022-09-11T11:24:38;3.97;;;1.60;;
38581;SDS011;24349;53.720;10.014;2022-09-11T11:30:18;3.00;;;1.40;;
38581;SDS011;24349;53.720;10.014;2022-09-11T11:32:54;3.90;;;1.60;;
38581;SDS011;24349;53.720;10.014;2022-09-11T11:41:29;3.22;;;1.20;;
38581;SDS011;24349;53.720;10.014;2022-09-11T11:44:03;2.85;;;1.30;;
38581;SDS011;24349;53.720;10.014;2022-09-11T11:46:36;2.42;;;1.25;;
38581;SDS011;24349;53.720;10.014;2022-09-11T11:51:43;2.53;;;1.33;;
38581;SDS011;24349;53.720;10.014;2022-09-11T11:54:18;2.97;;;1.30;;
38581;SDS011;24349;53.720;10.014;2022-09-11T11:56:49;2.65;;;1.20;;
38581;SDS011;24349;53.720;10.014;2022-09-11T11:59:35;2.55;;;1.20;;
38581;SDS011;24349;53.720;10.014;2022-09-11T12:02:13;2.95;;;1.40;;
38581;SDS011;24349;53.720;10.014;2022-09-11T12:05:04;3.92;;;1.60;;
38581;SDS011;24349;53.720;10.014;2022-09-11T12:07:35;4.55;;;1.50;;
38581;SDS011;24349;53.720;10.014;2022-09-11T12:10:03;4.22;;;1.50;;
38581;SDS011;24349;53.720;10.014;2022-09-11T12:12:32;2.90;;;1.27;;
38581;SDS011;24349;53.720;10.014;2022-09-11T12:15:03;2.92;;;1.42;;
38581;SDS011;24349;53.720;10.014;2022-09-11T12:22:34;3.47;;;1.25;;
38581;SDS011;24349;53.720;10.014;2022-09-11T12:25:04;3.22;;;1.40;;
38581;SDS011;24349;53.720;10.014;2022-09-11T12:32:48;2.70;;;1.30;;
38581;SDS011;24349;53.720;10.014;2022-09-11T12:43:13;2.80;;;1.27;;
38581;SDS011;24349;53.720;10.014;2022-09-11T12:45:53;2.90;;;1.30;;
38581;SDS011;24349;53.720;10.014;2022-09-11T12:52:17;3.53;;;1.40;;
38581;SDS011;24349;53.720;10.014;2022-09-11T12:54:10;2.60;;;1.30;;
38581;SDS011;24349;53.720;10.014;2022-09-11T12:56:43;2.90;;;1.30;;
38581;SDS011;24349;53.720;10.014;2022-09-11T12:59:34;3.17;;;1.40;;
38581;SDS011;24349;53.720;10.014;2022-09-11T13:02:03;2.58;;;1.40;;
38581;SDS011;24349;53.720;10.014;2022-09-11T13:04:44;3.90;;;1.50;;
38581;SDS011;24349;53.720;10.014;2022-09-11T13:07:17;3.55;;;1.25;;
38581;SDS011;24349;53.720;10.014;2022-09-11T13:09:49;3.08;;;1.48;;
38581;SDS011;24349;53.720;10.014;2022-09-11T13:14:51;3.03;;;1.50;;
38581;SDS011;24349;53.720;10.014;2022-09-11T13:19:50;3.20;;;1.40;;
38581;SDS011;24349;53.720;10.014;2022-09-11T13:24:47;2.50;;;1.30;;
38581;SDS011;24349;53.720;10.014;2022-09-11T13:27:23;2.83;;;1.48;;
38581;SDS011;24349;53.720;10.014;2022-09-11T13:29:50;3.45;;;1.60;;
38581;SDS011;24349;53.720;10.014;2022-09-11T13:32:18;4.25;;;1.48;;
38581;SDS011;24349;53.720;10.014;2022-09-11T13:34:46;3.15;;;1.40;;
38581;SDS011;24349;53.720;10.014;2022-09-11T13:40:02;3.05;;;1.20;;
38581;SDS011;24349;53.720;10.014;2022-09-11T13:42:31;2.85;;;1.20;;
38581;SDS011;24349;53.720;10.014;2022-09-11T13:44:58;2.35;;;1.30;;
38581;SDS011;24349;53.720;10.014;2022-09-11T13:47:27;2.45;;;1.10;;
38581;SDS011;24349;53.720;10.014;2022-09-11T13:49:56;3.35;;;1.20;;
38581;SDS011;24349;53.720;10.014;2022-09-11T13:52:25;2.97;;;1.30;;
38581;SDS011;24349;53.720;10.014;2022-09-11T13:54:53;2.88;;;1.42;;
38581;SDS011;24349;53.720;10.014;2022-09-11T13:57:22;2.75;;;1.20;;
38581;SDS011;24349;53.720;10.014;2022-09-11T13:59:53;2.45;;;1.20;;
38581;SDS011;24349;53.720;10.014;2022-09-11T14:02:29;3.70;;;1.20;;
38581;SDS011;24349;53.720;10.014;2022-09-11T14:05:06;2.50;;;1.15;;
38581;SDS011;24349;53.720;10.014;2022-09-11T14:08:04;2.58;;;1.15;;
38581;SDS011;24349;53.720;10.014;2022-09-11T14:10:54;2.85;;;1.10;;
38581;SDS011;24349;53.720;10.014;2022-09-11T14:13:32;2.33;;;1.10;;
38581;SDS011;24349;53.720;10.014;2022-09-11T14:16:48;1.65;;;1.02;;
38581;SDS011;24349;53.720;10.014;2022-09-11T14:19:13;2.35;;;1.15;;
38581;SDS011;24349;53.720;10.014;2022-09-11T14:21:40;1.33;;;1.00;;
38581;SDS011;24349;53.720;10.014;2022-09-11T14:27:32;3.17;;;1.20;;
38581;SDS011;24349;53.720;10.014;2022-09-11T14:30:01;3.00;;;1.20;;
38581;SDS011;24349;53.720;10.014;2022-09-11T14:32:48;3.35;;;1.52;;
38581;SDS011;24349;53.720;10.014;2022-09-11T14:35:40;2.83;;;1.30;;
38581;SDS011;24349;53.720;10.014;2022-09-11T14:38:08;2.95;;;1.40;;
38581;SDS011;24349;53.720;10.014;2022-09-11T14:40:36;3.22;;;1.55;;
38581;SDS011;24349;53.720;10.014;2022-09-11T14:43:10;3.03;;;1.30;;
38581;SDS011;24349;53.720;10.014;2022-09-11T14:45:36;3.72;;;1.75;;
38581;SDS011;24349;53.720;10.014;2022-09-11T14:48:07;3.70;;;1.45;;
38581;SDS011;24349;53.720;10.014;2022-09-11T14:50:36;3.33;;;1.50;;
38581;SDS011;24349;53.720;10.014;2022-09-11T14:53:02;3.28;;;1.50;;
38581;SDS011;24349;53.720;10.014;2022-09-11T14:55:28;3.97;;;1.50;;
38581;SDS011;24349;53.720;10.014;2022-09-11T14:57:54;3.08;;;1.20;;
38581;SDS011;24349;53.720;10.014;2022-09-11T15:00:20;2.42;;;1.20;;
38581;SDS011;24349;53.720;10.014;2022-09-11T15:02:45;2.63;;;1.17;;
38581;SDS011;24349;53.720;10.014;2022-09-11T15:05:13;2.47;;;1.20;;
38581;SDS011;24349;53.720;10.014;2022-09-11T15:07:40;3.45;;;1.40;;
38581;SDS011;24349;53.720;10.014;2022-09-11T15:10:09;2.50;;;1.25;;
38581;SDS011;24349;53.720;10.014;2022-09-11T15:12:39;2.55;;;1.20;;
38581;SDS011;24349;53.720;10.014;2022-09-11T15:15:05;3.35;;;1.20;;
38581;SDS011;24349;53.720;10.014;2022-09-11T15:17:31;2.60;;;1.30;;
38581;SDS011;24349;53.720;10.014;2022-09-11T15:19:59;2.28;;;1.10;;
38581;SDS011;24349;53.720;10.014;2022-09-11T15:22:25;3.40;;;1.23;;
38581;SDS011;24349;53.720;10.014;2022-09-11T15:24:50;2.72;;;1.33;;
38581;SDS011;24349;53.720;10.014;2022-09-11T15:27:16;3.80;;;1.65;;
38581;SDS011;24349;53.720;10.014;2022-09-11T15:29:43;4.32;;;1.70;;
38581;SDS011;24349;53.720;10.014;2022-09-11T15:32:09;4.05;;;1.60;;
38581;SDS011;24349;53.720;10.014;2022-09-11T15:34:36;2.63;;;1.40;;
38581;SDS011;24349;53.720;10.014;2022-09-11T15:37:03;3.53;;;1.30;;
38581;SDS011;24349;53.720;10.014;2022-09-11T15:39:29;3.45;;;1.30;;
38581;SDS011;24349;53.720;10.014;2022-09-11T15:41:55;3.50;;;1.50;;
38581;SDS011;24349;53.720;10.014;2022-09-11T15:44:22;3.90;;;1.50;;
38581;SDS011;24349;53.720;10.014;2022-09-11T15:46:50;3.10;;;1.40;;
38581;SDS011;24349;53.720;10.014;2022-09-11T15:49:17;4.80;;;1.40;;
38581;SDS011;24349;53.720;10.014;2022-09-11T15:51:46;2.72;;;1.30;;
38581;SDS011;24349;53.720;10.014;2022-09-11T15:54:15;3.55;;;1.42;;
38581;SDS011;24349;53.720;10.014;2022-09-11T15:56:41;3.15;;;1.45;;
38581;SDS011;24349;53.720;10.014;2022-09-11T15:59:11;3.25;;;1.70;;
38581;SDS011;24349;53.720;10.014;2022-09-11T16:01:42;3.60;;;1.55;;
38581;SDS011;24349;53.720;10.014;2022-09-11T16:04:12;4.40;;;1.58;;
38581;SDS011;24349;53.720;10.014;2022-09-11T16:06:41;3.00;;;1.38;;
38581;SDS011;24349;53.720;10.014;2022-09-11T16:09:20;3.38;;;1.60;;
38581;SDS011;24349;53.720;10.014;2022-09-11T16:11:48;3.15;;;1.50;;
38581;SDS011;24349;53.720;10.014;2022-09-11T16:14:18;3.30;;;1.50;;
38581;SDS011;24349;53.720;10.014;2022-09-11T16:16:45;2.85;;;1.45;;
38581;SDS011;24349;53.720;10.014;2022-09-11T16:19:12;2.80;;;1.20;;
38581;SDS011;24349;53.720;10.014;2022-09-11T16:21:39;2.90;;;1.27;;
38581;SDS011;24349;53.720;10.014;2022-09-11T16:24:05;3.72;;;1.60;;
38581;SDS011;24349;53.720;10.014;2022-09-11T16:26:31;3.30;;;1.27;;
38581;SDS011;24349;53.720;10.014;2022-09-11T16:28:57;3.60;;;1.40;;
38581;SDS011;24349;53.720;10.014;2022-09-11T16:31:22;2.65;;;1.20;;
38581;SDS011;24349;53.720;10.014;2022-09-11T16:33:48;3.25;;;1.40;;
38581;SDS011;24349;53.720;10.014;2022-09-11T16:36:18;2.72;;;1.23;;
38581;SDS011;24349;53.720;10.014;2022-09-11T16:38:45;3.55;;;1.50;;
38581;SDS011;24349;53.720;10.014;2022-09-11T16:41:14;4.85;;;1.40;;
38581;SDS011;24349;53.720;10.014;2022-09-11T16:43:44;2.33;;;1.20;;
38581;SDS011;24349;53.720;10.014;2022-09-11T16:46:11;2.75;;;1.35;;
38581;SDS011;24349;53.720;10.014;2022-09-11T16:48:39;2.97;;;1.40;;
38581;SDS011;24349;53.720;10.014;2022-09-11T16:51:06;2.92;;;1.25;;